Time;durP1;ratioP1;P1;durP2;ratioP2;P2;SDS_P1;SDS_P2;PMS_P1;PMS_P2;Temp;Humidity;BMP_temperature;BMP_pressure;BME280_temperature;BME280_humidity;BME280_pressure;Samples;Min_cycle;Max_cycle;Signal;HPM_P1;HPM_P2
2022/03/01 00:00:52;;;;;;;16.17;9.27;;;6.10;82.30;;;;;;5046768;28;20739;-76
2022/03/01 00:03:21;;;;;;;15.80;8.93;;;6.20;82.10;;;;;;5052326;28;20201;-76
2022/03/01 00:05:51;;;;;;;15.30;9.17;;;6.20;82.00;;;;;;5046009;28;20668;-76
2022/03/01 00:08:19;;;;;;;13.97;8.87;;;6.20;82.10;;;;;;5048113;28;20247;-76
2022/03/01 00:10:47;;;;;;;14.80;8.63;;;6.10;82.60;;;;;;5050204;28;20201;-76
2022/03/01 00:13:15;;;;;;;14.50;8.83;;;6.10;82.50;;;;;;5049673;28;20267;-76
2022/03/01 00:15:43;;;;;;;16.37;9.30;;;6.20;82.40;;;;;;5047633;28;20202;-76
2022/03/01 00:18:14;;;;;;;13.47;8.57;;;6.20;82.60;;;;;;5050050;28;20788;-77
2022/03/01 00:20:43;;;;;;;17.67;8.90;;;6.20;82.70;;;;;;5051857;28;20246;-76
2022/03/01 00:23:12;;;;;;;14.67;8.13;;;6.20;82.60;;;;;;5049638;28;20205;-76
2022/03/01 00:25:40;;;;;;;12.03;7.73;;;6.20;82.40;;;;;;5045116;28;20290;-76
2022/03/01 00:28:09;;;;;;;15.13;8.77;;;6.20;82.20;;;;;;5042097;28;20813;-78
2022/03/01 00:30:37;;;;;;;12.47;7.77;;;6.20;82.20;;;;;;5049148;28;20192;-76
2022/03/01 00:33:05;;;;;;;11.53;8.20;;;6.20;82.40;;;;;;5049665;28;20201;-76
2022/03/01 00:35:34;;;;;;;14.63;8.23;;;6.20;82.90;;;;;;5050464;28;20760;-76
2022/03/01 00:38:02;;;;;;;13.87;7.93;;;6.20;83.10;;;;;;5049971;28;20205;-76
2022/03/01 00:40:31;;;;;;;18.63;8.60;;;6.10;83.00;;;;;;5047552;28;20209;-76
2022/03/01 00:43:00;;;;;;;14.27;8.40;;;6.10;83.20;;;;;;5051159;28;20773;-76
2022/03/01 00:45:28;;;;;;;13.10;8.00;;;6.10;83.50;;;;;;5049202;28;20663;-75
2022/03/01 00:47:56;;;;;;;17.90;8.03;;;6.10;83.40;;;;;;5050003;28;20201;-76
2022/03/01 00:50:25;;;;;;;13.47;7.90;;;6.00;83.60;;;;;;5045029;28;20229;-76
2022/03/01 00:52:53;;;;;;;13.53;8.53;;;6.10;83.70;;;;;;5048528;28;20215;-76
2022/03/01 00:55:22;;;;;;;12.67;7.50;;;6.10;83.80;;;;;;5049372;28;20196;-76
2022/03/01 00:57:51;;;;;;;11.77;7.77;;;6.10;83.70;;;;;;5047483;28;20767;-76
2022/03/01 01:00:20;;;;;;;15.80;7.50;;;6.10;83.50;;;;;;5049072;28;20841;-76
2022/03/01 01:02:49;;;;;;;13.47;8.33;;;6.10;83.40;;;;;;5045231;28;20198;-77
2022/03/01 01:05:18;;;;;;;15.33;8.53;;;6.10;83.70;;;;;;5047934;28;20205;-76
2022/03/01 01:07:46;;;;;;;13.73;7.90;;;6.10;83.80;;;;;;5045862;28;20707;-76
2022/03/01 01:10:14;;;;;;;15.53;8.43;;;6.00;84.10;;;;;;5048380;28;20225;-76
2022/03/01 01:12:43;;;;;;;16.57;7.93;;;6.00;84.10;;;;;;5049425;28;20590;-77
2022/03/01 01:15:13;;;;;;;18.23;8.97;;;6.00;84.30;;;;;;5046530;28;20208;-76
2022/03/01 01:17:42;;;;;;;16.90;9.07;;;6.00;84.60;;;;;;5049961;28;20198;-76
2022/03/01 01:20:14;;;;;;;11.93;8.55;;;6.00;84.50;;;;;;5046585;28;20540;-76
2022/03/01 01:22:41;;;;;;;12.37;7.77;;;6.00;84.90;;;;;;5047649;28;20248;-77
2022/03/01 01:25:12;;;;;;;11.83;7.70;;;6.00;84.90;;;;;;5048590;28;20291;-78
2022/03/01 01:27:42;;;;;;;13.80;8.27;;;6.00;84.70;;;;;;5047320;28;20193;-76
2022/03/01 01:30:14;;;;;;;13.47;7.90;;;6.10;84.60;;;;;;5047567;28;20213;-77
2022/03/01 01:32:43;;;;;;;11.77;8.00;;;6.00;84.40;;;;;;5046128;28;20207;-76
2022/03/01 01:35:13;;;;;;;14.47;7.67;;;6.10;84.40;;;;;;5047085;28;20255;-76
2022/03/01 01:37:43;;;;;;;12.70;8.07;;;6.10;84.30;;;;;;5047269;28;20599;-77
2022/03/01 01:40:15;;;;;;;12.87;8.30;;;6.10;84.20;;;;;;5044788;28;20685;-77
2022/03/01 01:42:43;;;;;;;15.93;8.40;;;6.10;84.10;;;;;;5048938;28;20741;-77
2022/03/01 01:45:13;;;;;;;12.70;7.80;;;6.20;84.10;;;;;;5045610;28;20205;-77
2022/03/01 01:47:47;;;;;;;13.20;7.50;;;6.20;83.90;;;;;;5048251;28;20210;-76
2022/03/01 01:50:16;;;;;;;14.97;7.80;;;6.20;83.90;;;;;;5037136;28;21759;-76
2022/03/01 01:52:46;;;;;;;12.80;7.93;;;6.20;83.70;;;;;;5045134;28;20215;-77
2022/03/01 01:55:16;;;;;;;13.23;8.10;;;6.20;83.70;;;;;;5045681;28;20198;-76
2022/03/01 01:57:44;;;;;;;13.23;8.27;;;6.30;83.60;;;;;;5047539;28;20251;-76
2022/03/01 02:00:15;;;;;;;17.10;8.77;;;6.30;83.60;;;;;;5046958;28;20188;-77
2022/03/01 02:02:44;;;;;;;12.37;8.17;;;6.30;83.40;;;;;;5047584;28;20663;-76
2022/03/01 02:05:13;;;;;;;14.77;8.53;;;6.30;83.40;;;;;;5046566;28;20253;-76
2022/03/01 02:07:47;;;;;;;14.00;8.57;;;6.30;83.30;;;;;;5046318;28;20945;-76
2022/03/01 02:10:16;;;;;;;12.93;8.43;;;6.30;83.10;;;;;;5045561;28;20209;-76
2022/03/01 02:12:45;;;;;;;14.63;9.03;;;6.40;83.20;;;;;;5047878;28;20205;-77
2022/03/01 02:15:17;;;;;;;16.30;9.23;;;6.40;83.20;;;;;;5042388;28;20199;-76
2022/03/01 02:17:46;;;;;;;15.77;8.80;;;6.40;83.20;;;;;;5048016;28;20891;-77
2022/03/01 02:20:17;;;;;;;17.50;9.47;;;6.50;83.20;;;;;;5046549;28;20202;-77
2022/03/01 02:22:46;;;;;;;17.00;9.57;;;6.50;83.00;;;;;;5046344;28;20199;-76
2022/03/01 02:25:15;;;;;;;16.43;9.10;;;6.50;82.90;;;;;;5044380;28;20198;-77
2022/03/01 02:27:43;;;;;;;15.30;9.53;;;6.50;82.90;;;;;;5043721;28;20201;-76
2022/03/01 02:30:12;;;;;;;14.83;8.97;;;6.50;82.80;;;;;;5041811;28;20372;-77
2022/03/01 02:32:41;;;;;;;16.43;9.03;;;6.50;82.80;;;;;;5048115;28;20208;-76
2022/03/01 02:35:11;;;;;;;17.67;9.93;;;6.50;82.80;;;;;;5043996;28;20201;-77
2022/03/01 02:37:42;;;;;;;15.10;8.73;;;6.50;82.70;;;;;;5044162;28;20235;-76
2022/03/01 02:40:11;;;;;;;16.90;9.23;;;6.50;82.70;;;;;;5047144;28;20198;-77
2022/03/01 02:42:43;;;;;;;17.50;9.50;;;6.50;82.70;;;;;;5049789;28;20202;-76
2022/03/01 02:45:13;;;;;;;14.23;8.77;;;6.50;82.70;;;;;;5044191;28;20202;-76
2022/03/01 02:47:41;;;;;;;17.17;10.50;;;6.60;82.90;;;;;;5046078;28;20206;-76
2022/03/01 02:50:12;;;;;;;15.60;9.50;;;6.60;82.70;;;;;;5042110;28;20323;-77
2022/03/01 02:52:42;;;;;;;16.40;9.30;;;6.60;82.80;;;;;;5044704;28;20812;-77
2022/03/01 02:55:11;;;;;;;16.70;9.70;;;6.60;82.80;;;;;;5046963;28;20254;-78
2022/03/01 02:57:40;;;;;;;17.20;9.97;;;6.60;82.70;;;;;;5044729;28;20202;-76
2022/03/01 03:00:10;;;;;;;17.73;10.20;;;6.60;82.70;;;;;;5044947;28;20251;-76
2022/03/01 03:02:41;;;;;;;20.23;11.63;;;6.60;82.80;;;;;;5043117;28;20439;-76
2022/03/01 03:05:09;;;;;;;17.90;9.87;;;6.60;83.30;;;;;;5044676;28;20221;-78
2022/03/01 03:07:38;;;;;;;19.03;10.13;;;6.60;83.20;;;;;;5044709;28;20201;-77
2022/03/01 03:10:08;;;;;;;16.33;9.90;;;6.60;83.90;;;;;;5045507;28;20244;-76
2022/03/01 03:12:36;;;;;;;19.40;10.00;;;6.60;83.00;;;;;;5046050;28;20194;-76
2022/03/01 03:15:06;;;;;;;17.53;10.50;;;6.60;83.10;;;;;;5044608;28;20839;-77
2022/03/01 03:17:34;;;;;;;16.90;9.43;;;6.60;83.00;;;;;;5046631;28;20205;-77
2022/03/01 03:20:03;;;;;;;19.10;10.60;;;6.60;82.90;;;;;;5044208;28;20202;-76
2022/03/01 03:22:31;;;;;;;16.87;9.63;;;6.60;82.90;;;;;;5045962;28;21128;-76
2022/03/01 03:25:00;;;;;;;17.40;10.50;;;6.60;82.90;;;;;;5046899;28;20251;-77
2022/03/01 03:27:29;;;;;;;17.70;10.30;;;6.60;82.90;;;;;;5047702;28;20199;-76
2022/03/01 03:29:58;;;;;;;17.63;9.70;;;6.60;82.80;;;;;;5043842;28;20221;-76
2022/03/01 03:32:26;;;;;;;19.27;10.60;;;6.60;82.70;;;;;;5046608;28;20217;-77
2022/03/01 03:34:54;;;;;;;21.13;11.10;;;6.70;82.70;;;;;;5044776;28;20200;-76
2022/03/01 03:37:22;;;;;;;21.63;10.97;;;6.70;82.80;;;;;;5045254;28;20362;-76
2022/03/01 03:39:51;;;;;;;18.10;10.47;;;6.70;82.70;;;;;;5047892;28;20201;-76
2022/03/01 03:42:19;;;;;;;17.83;10.03;;;6.70;82.60;;;;;;5045317;28;20891;-76
2022/03/01 03:44:49;;;;;;;20.00;9.87;;;6.70;82.60;;;;;;5043221;28;20209;-76
2022/03/01 03:47:17;;;;;;;20.40;10.70;;;6.70;82.50;;;;;;5045960;28;20912;-76
2022/03/01 03:49:47;;;;;;;19.13;10.70;;;6.70;82.60;;;;;;5046273;28;20251;-76
2022/03/01 03:52:16;;;;;;;16.87;10.23;;;6.70;82.50;;;;;;5046396;28;20202;-76
2022/03/01 03:54:44;;;;;;;19.03;10.30;;;6.70;82.40;;;;;;5038839;28;20202;-77
2022/03/01 03:57:12;;;;;;;21.40;10.17;;;6.70;82.40;;;;;;5034044;28;20195;-76
2022/03/01 03:59:41;;;;;;;16.73;10.33;;;6.70;82.40;;;;;;5045942;28;20213;-76
2022/03/01 04:02:11;;;;;;;16.60;9.40;;;6.80;82.50;;;;;;5046336;28;20687;-77
2022/03/01 04:04:39;;;;;;;19.77;9.93;;;6.80;82.50;;;;;;5046593;28;20197;-76
2022/03/01 04:07:09;;;;;;;21.30;10.07;;;6.80;82.40;;;;;;5045190;28;20258;-76
2022/03/01 04:09:37;;;;;;;19.70;10.40;;;6.80;82.30;;;;;;5045068;28;20206;-77
2022/03/01 04:12:06;;;;;;;20.33;10.43;;;6.80;82.30;;;;;;5044251;28;20929;-76
2022/03/01 04:14:34;;;;;;;17.07;9.97;;;6.80;82.30;;;;;;5043344;28;20913;-77
2022/03/01 04:17:04;;;;;;;18.53;9.77;;;6.80;82.20;;;;;;5044837;28;20228;-76
2022/03/01 04:19:33;;;;;;;18.57;10.33;;;6.80;82.10;;;;;;5045595;28;20224;-76
2022/03/01 04:22:04;;;;;;;18.53;10.43;;;6.80;82.10;;;;;;5046078;28;20247;-77
2022/03/01 04:24:32;;;;;;;18.07;10.90;;;6.80;82.00;;;;;;5044797;28;20198;-76
2022/03/01 04:27:02;;;;;;;18.43;9.97;;;6.80;82.00;;;;;;5046415;28;20239;-75
2022/03/01 04:29:31;;;;;;;18.00;10.17;;;6.80;81.90;;;;;;5045573;28;20186;-76
2022/03/01 04:31:59;;;;;;;20.37;10.73;;;6.80;81.90;;;;;;5046301;28;20218;-77
2022/03/01 04:34:27;;;;;;;18.70;10.77;;;6.80;81.90;;;;;;5041798;28;20264;-76
2022/03/01 04:36:57;;;;;;;18.80;9.87;;;6.80;81.90;;;;;;5047474;28;20209;-76
2022/03/01 04:39:25;;;;;;;21.30;11.57;;;6.70;81.90;;;;;;5048549;28;20194;-76
2022/03/01 04:41:53;;;;;;;18.77;10.27;;;6.80;82.00;;;;;;5049258;28;20204;-76
2022/03/01 04:44:22;;;;;;;18.67;10.53;;;6.80;82.00;;;;;;5047283;28;20236;-77
2022/03/01 04:46:50;;;;;;;18.93;10.90;;;6.80;82.10;;;;;;5048028;28;20221;-77
2022/03/01 04:49:19;;;;;;;20.43;10.90;;;6.70;82.00;;;;;;5047311;28;20201;-77
2022/03/01 04:51:47;;;;;;;21.43;11.73;;;6.70;82.30;;;;;;5048550;28;20225;-76
2022/03/01 04:54:17;;;;;;;19.50;11.57;;;6.70;82.30;;;;;;5048141;28;20412;-77
2022/03/01 04:56:46;;;;;;;20.47;11.97;;;6.70;82.20;;;;;;5048163;28;20237;-77
2022/03/01 04:59:14;;;;;;;18.50;10.90;;;6.70;82.30;;;;;;5046554;28;20599;-77
2022/03/01 05:01:43;;;;;;;21.60;11.10;;;6.70;82.30;;;;;;5048477;28;20550;-77
2022/03/01 05:04:11;;;;;;;21.40;11.87;;;6.70;82.30;;;;;;5044933;28;20202;-77
2022/03/01 05:06:40;;;;;;;20.30;12.07;;;6.70;82.50;;;;;;5049616;28;20210;-77
2022/03/01 05:09:08;;;;;;;24.37;11.20;;;6.70;82.30;;;;;;5050333;28;20197;-76
2022/03/01 05:11:38;;;;;;;24.60;12.43;;;6.70;82.30;;;;;;5050531;28;20217;-77
2022/03/01 05:14:06;;;;;;;22.73;13.57;;;6.70;82.50;;;;;;5051060;28;20652;-77
2022/03/01 05:16:35;;;;;;;22.70;11.73;;;6.70;82.40;;;;;;5051934;28;20202;-78
2022/03/01 05:19:04;;;;;;;20.35;12.55;;;6.70;82.40;;;;;;5049534;28;20445;-77
2022/03/01 05:21:32;;;;;;;16.47;10.50;;;6.70;83.00;;;;;;5048621;28;20197;-75
2022/03/01 05:24:00;;;;;;;20.73;11.30;;;6.70;83.00;;;;;;5048426;28;20211;-75
2022/03/01 05:26:29;;;;;;;16.90;10.00;;;6.70;82.70;;;;;;5048708;28;20198;-76
2022/03/01 05:28:59;;;;;;;20.43;11.90;;;6.70;82.70;;;;;;5046428;28;20195;-76
2022/03/01 05:31:28;;;;;;;20.33;10.70;;;6.70;82.60;;;;;;5049154;28;20844;-76
2022/03/01 05:33:56;;;;;;;20.03;10.90;;;6.70;82.60;;;;;;5046928;28;20236;-76
2022/03/01 05:36:24;;;;;;;19.93;12.00;;;6.80;82.60;;;;;;5046824;28;20202;-76
2022/03/01 05:38:53;;;;;;;19.87;11.17;;;6.80;82.60;;;;;;5050237;28;20207;-75
2022/03/01 05:41:21;;;;;;;19.80;10.90;;;6.80;82.80;;;;;;5049005;28;20198;-76
2022/03/01 05:43:49;;;;;;;20.80;11.77;;;6.80;82.60;;;;;;5049910;28;20210;-76
2022/03/01 05:46:19;;;;;;;18.27;11.20;;;6.80;82.50;;;;;;5048837;28;20199;-76
2022/03/01 05:48:47;;;;;;;22.90;11.33;;;6.80;82.60;;;;;;5047413;28;21595;-76
2022/03/01 05:51:18;;;;;;;19.43;11.97;;;6.80;82.50;;;;;;5049714;28;20226;-76
2022/03/01 05:53:46;;;;;;;21.33;11.80;;;6.80;82.50;;;;;;5050238;28;20608;-76
2022/03/01 05:56:15;;;;;;;20.60;11.30;;;6.80;82.40;;;;;;5050608;28;21166;-76
2022/03/01 05:58:43;;;;;;;19.67;11.07;;;6.80;82.30;;;;;;5049880;28;20196;-76
2022/03/01 06:01:11;;;;;;;22.53;12.20;;;6.80;82.30;;;;;;5049470;28;20205;-76
2022/03/01 06:03:41;;;;;;;16.77;11.47;;;6.80;82.50;;;;;;5047880;28;20201;-76
2022/03/01 06:06:10;;;;;;;22.17;11.57;;;6.90;82.50;;;;;;5050730;28;20205;-76
2022/03/01 06:08:38;;;;;;;16.53;10.43;;;6.90;82.50;;;;;;5049444;28;20732;-75
2022/03/01 06:11:06;;;;;;;18.50;11.77;;;6.90;82.50;;;;;;5050009;28;20206;-76
2022/03/01 06:13:37;;;;;;;19.23;11.40;;;6.90;82.50;;;;;;5048924;28;20205;-77
2022/03/01 06:16:07;;;;;;;18.03;11.73;;;7.00;82.50;;;;;;5050376;28;20229;-76
2022/03/01 06:18:35;;;;;;;19.43;11.40;;;7.00;82.30;;;;;;5048849;28;20207;-76
2022/03/01 06:21:05;;;;;;;19.67;11.13;;;7.00;82.20;;;;;;5050344;28;20196;-77
2022/03/01 06:23:33;;;;;;;16.13;11.07;;;7.10;82.30;;;;;;5048759;28;20218;-76
2022/03/01 06:26:02;;;;;;;16.50;9.10;;;7.10;82.10;;;;;;5048556;28;20764;-77
2022/03/01 06:28:31;;;;;;;14.43;8.87;;;7.10;81.90;;;;;;5046663;28;20202;-77
2022/03/01 06:31:00;;;;;;;14.40;10.10;;;7.10;81.70;;;;;;5050633;28;20219;-76
2022/03/01 06:33:28;;;;;;;18.57;9.90;;;7.20;81.60;;;;;;5046824;28;20282;-75
2022/03/01 06:35:56;;;;;;;15.47;9.20;;;7.20;81.60;;;;;;5050516;28;20199;-76
2022/03/01 06:38:26;;;;;;;15.90;8.70;;;7.20;81.40;;;;;;5046755;28;20200;-77
2022/03/01 06:40:56;;;;;;;13.00;8.33;;;7.20;81.40;;;;;;5048417;28;20203;-76
2022/03/01 06:43:24;;;;;;;13.57;8.73;;;7.20;81.20;;;;;;5049325;28;20229;-77
2022/03/01 06:45:53;;;;;;;12.97;8.27;;;7.30;81.20;;;;;;5047777;28;20215;-76
2022/03/01 06:48:22;;;;;;;14.33;8.43;;;7.30;81.00;;;;;;5048359;28;20257;-75
2022/03/01 06:50:52;;;;;;;11.63;7.70;;;7.30;80.80;;;;;;5048822;28;20329;-76
2022/03/01 06:53:20;;;;;;;15.17;9.20;;;7.40;80.70;;;;;;5047138;28;20309;-75
2022/03/01 06:55:52;;;;;;;16.17;8.63;;;7.40;80.40;;;;;;5046507;28;20387;-76
2022/03/01 06:58:21;;;;;;;13.83;8.57;;;7.40;80.20;;;;;;5047794;28;20206;-77
2022/03/01 07:00:49;;;;;;;13.03;8.37;;;7.40;80.20;;;;;;5044335;28;20206;-75
2022/03/01 07:03:17;;;;;;;13.87;8.57;;;7.40;80.20;;;;;;5048344;28;20194;-77
2022/03/01 07:05:46;;;;;;;17.90;8.87;;;7.50;80.20;;;;;;5046691;28;20209;-75
2022/03/01 07:08:14;;;;;;;15.43;8.13;;;7.50;80.10;;;;;;5049164;28;20244;-76
2022/03/01 07:10:43;;;;;;;18.60;10.33;;;7.50;80.00;;;;;;5045380;28;20208;-76
2022/03/01 07:13:12;;;;;;;17.63;10.60;;;7.50;79.90;;;;;;5046844;28;20214;-75
2022/03/01 07:15:41;;;;;;;20.37;12.47;;;7.50;79.90;;;;;;5048391;28;20711;-76
2022/03/01 07:18:09;;;;;;;18.70;10.57;;;7.50;79.70;;;;;;5048567;28;20347;-76
2022/03/01 07:20:37;;;;;;;21.10;10.77;;;7.50;79.60;;;;;;5046664;28;20704;-76
2022/03/01 07:23:07;;;;;;;16.23;10.53;;;7.50;79.50;;;;;;5050183;28;20205;-74
2022/03/01 07:25:35;;;;;;;17.53;10.40;;;7.50;79.60;;;;;;5047334;28;20203;-76
2022/03/01 07:28:04;;;;;;;21.83;11.57;;;7.50;79.50;;;;;;5046302;28;20741;-77
2022/03/01 07:30:34;;;;;;;16.57;10.33;;;7.50;79.60;;;;;;5047227;28;20200;-75
2022/03/01 07:33:02;;;;;;;14.77;9.43;;;7.50;79.40;;;;;;5047544;28;20220;-75
2022/03/01 07:35:31;;;;;;;16.23;9.87;;;7.50;79.40;;;;;;5047165;28;20252;-76
2022/03/01 07:37:59;;;;;;;17.37;10.07;;;7.50;79.40;;;;;;5046950;28;20211;-76
2022/03/01 07:40:29;;;;;;;19.53;10.10;;;7.50;79.50;;;;;;5048451;28;20731;-76
2022/03/01 07:42:57;;;;;;;13.43;9.07;;;7.50;79.40;;;;;;5047183;28;20192;-76
2022/03/01 07:45:26;;;;;;;15.33;9.50;;;7.50;79.30;;;;;;5045450;28;20191;-74
2022/03/01 07:47:57;;;;;;;19.97;9.70;;;7.50;79.30;;;;;;5046859;28;20196;-76
2022/03/01 07:50:25;;;;;;;18.00;10.80;;;7.60;79.40;;;;;;5049302;28;20221;-76
2022/03/01 07:52:54;;;;;;;15.63;9.83;;;7.60;79.40;;;;;;5048872;28;20211;-74
2022/03/01 07:55:22;;;;;;;15.03;9.77;;;7.60;79.50;;;;;;5047765;28;20207;-76
2022/03/01 07:57:52;;;;;;;18.37;9.83;;;7.60;79.50;;;;;;5048988;28;20762;-76
2022/03/01 08:00:21;;;;;;;14.37;9.07;;;7.70;79.40;;;;;;5047877;28;20203;-76
2022/03/01 08:02:53;;;;;;;13.97;9.27;;;7.70;79.40;;;;;;5048240;28;20253;-76
2022/03/01 08:05:24;;;;;;;16.10;9.90;;;7.70;79.10;;;;;;5048809;28;20196;-76
2022/03/01 08:07:56;;;;;;;14.97;9.57;;;7.80;79.10;;;;;;5049654;28;20200;-76
2022/03/01 08:10:24;;;;;;;16.40;9.13;;;7.80;79.00;;;;;;5048332;28;20204;-76
2022/03/01 08:12:54;;;;;;;19.00;10.63;;;7.70;78.80;;;;;;5052987;28;20212;-76
2022/03/01 08:15:26;;;;;;;17.23;9.10;;;7.80;79.00;;;;;;5050443;28;20202;-77
2022/03/01 08:17:57;;;;;;;15.30;8.77;;;7.80;78.90;;;;;;5050788;28;20313;-77
2022/03/01 08:20:28;;;;;;;16.43;8.83;;;7.80;78.40;;;;;;5052164;28;20201;-76
2022/03/01 08:22:57;;;;;;;13.40;8.20;;;7.80;78.10;;;;;;5052778;28;20197;-76
2022/03/01 08:25:26;;;;;;;18.13;7.87;;;7.90;78.40;;;;;;5051146;28;20200;-77
2022/03/01 08:27:59;;;;;;;14.33;8.10;;;7.90;78.10;;;;;;5051682;28;20215;-76
2022/03/01 08:30:28;;;;;;;13.53;9.10;;;7.90;77.80;;;;;;5052658;28;20644;-75
2022/03/01 08:32:58;;;;;;;16.13;9.07;;;8.00;77.80;;;;;;5051025;28;20208;-76
2022/03/01 08:35:28;;;;;;;14.03;8.70;;;8.00;77.70;;;;;;5050245;28;20443;-75
2022/03/01 08:38:02;;;;;;;17.80;9.40;;;8.00;77.50;;;;;;5051783;28;20215;-76
2022/03/01 08:40:32;;;;;;;13.30;8.50;;;8.10;77.70;;;;;;5050711;28;20195;-76
2022/03/01 08:43:00;;;;;;;16.30;10.37;;;8.10;77.50;;;;;;5050637;28;20211;-76
2022/03/01 08:45:29;;;;;;;16.73;9.90;;;8.10;77.10;;;;;;5051067;28;20195;-77
2022/03/01 08:47:57;;;;;;;18.23;12.30;;;8.10;77.20;;;;;;5050794;28;20203;-75
2022/03/01 08:50:25;;;;;;;18.80;10.20;;;8.10;76.90;;;;;;5051990;28;20229;-75
2022/03/01 08:53:13;;;;;;;15.63;9.60;;;8.00;76.40;;;;;;5051374;28;20215;-76
2022/03/01 08:55:42;;;;;;;17.10;10.17;;;8.10;76.50;;;;;;5051551;28;20815;-76
2022/03/01 08:58:11;;;;;;;16.47;10.03;;;8.10;76.80;;;;;;5051371;28;20205;-76
2022/03/01 09:00:39;;;;;;;15.83;9.90;;;8.10;76.90;;;;;;5050754;28;20212;-76
2022/03/01 09:03:08;;;;;;;17.05;10.65;;;8.10;76.90;;;;;;5050054;28;20593;-76
2022/03/01 09:05:36;;;;;;;15.80;10.57;;;8.00;77.40;;;;;;5051299;28;20199;-75
2022/03/01 09:08:05;;;;;;;18.33;9.77;;;8.00;77.60;;;;;;5050749;28;20204;-76
2022/03/01 09:10:35;;;;;;;15.47;9.33;;;8.00;77.70;;;;;;5050591;28;20209;-76
2022/03/01 09:13:03;;;;;;;17.90;10.20;;;8.00;77.40;;;;;;5051450;28;20927;-75
2022/03/01 09:15:32;;;;;;;15.93;9.67;;;7.90;77.60;;;;;;5051054;28;20215;-75
2022/03/01 09:18:01;;;;;;;14.37;8.90;;;7.90;78.00;;;;;;5051562;28;20208;-75
2022/03/01 09:20:29;;;;;;;13.00;8.20;;;7.90;78.00;;;;;;5049903;28;20209;-76
2022/03/01 09:22:58;;;;;;;12.17;8.13;;;7.80;78.30;;;;;;5051759;28;20249;-76
2022/03/01 09:25:27;;;;;;;16.00;8.27;;;7.80;78.40;;;;;;5051711;28;20212;-75
2022/03/01 09:27:57;;;;;;;15.53;8.33;;;7.80;78.40;;;;;;5050579;28;20191;-75
2022/03/01 09:30:25;;;;;;;11.17;7.53;;;7.70;78.40;;;;;;5048210;28;20664;-77
2022/03/01 09:32:54;;;;;;;12.90;7.47;;;7.70;78.60;;;;;;5049044;28;20207;-75
2022/03/01 09:35:22;;;;;;;14.00;8.27;;;7.70;78.60;;;;;;5048662;28;20189;-76
2022/03/01 09:37:51;;;;;;;12.40;7.57;;;7.70;78.60;;;;;;5050366;28;21576;-76
2022/03/01 09:40:19;;;;;;;10.50;7.10;;;7.70;78.70;;;;;;5049640;28;20202;-76
2022/03/01 09:42:47;;;;;;;12.33;8.10;;;7.70;78.70;;;;;;5049958;28;20702;-76
2022/03/01 09:45:17;;;;;;;14.37;8.73;;;7.70;78.80;;;;;;5049718;28;20203;-77
2022/03/01 09:47:45;;;;;;;14.43;8.47;;;7.60;78.80;;;;;;5049199;28;20203;-78
2022/03/01 09:50:15;;;;;;;13.47;8.63;;;7.60;78.90;;;;;;5050681;28;20758;-79
2022/03/01 09:52:44;;;;;;;14.17;8.47;;;7.70;79.00;;;;;;5051756;28;20227;-79
2022/03/01 09:55:12;;;;;;;12.83;7.10;;;7.70;79.00;;;;;;5048305;28;20264;-82
2022/03/01 09:57:41;;;;;;;11.57;7.57;;;7.70;79.10;;;;;;5048852;28;20198;-79
2022/03/01 10:00:10;;;;;;;11.47;7.47;;;7.70;79.10;;;;;;5050660;28;20717;-82
2022/03/01 10:02:43;;;;;;;8.60;6.40;;;7.80;79.10;;;;;;5051180;28;20207;-83
2022/03/01 10:05:13;;;;;;;8.50;6.10;;;7.80;79.10;;;;;;5047314;28;20208;-82
2022/03/01 10:07:44;;;;;;;10.40;5.63;;;7.90;79.10;;;;;;5051419;28;20202;-80
2022/03/01 10:10:16;;;;;;;7.07;5.70;;;8.00;79.30;;;;;;5051786;28;20220;-81
2022/03/01 10:12:52;;;;;;;10.40;6.23;;;8.00;79.20;;;;;;5051081;28;20286;-81
2022/03/01 10:15:28;;;;;;;10.60;6.37;;;8.10;79.10;;;;;;5048464;28;20213;-80
2022/03/01 10:17:58;;;;;;;10.87;6.70;;;8.10;79.10;;;;;;5049521;28;20202;-80
2022/03/01 10:20:26;;;;;;;11.50;7.17;;;8.10;79.10;;;;;;5049367;28;20850;-79
2022/03/01 10:22:58;;;;;;;8.80;6.10;;;8.10;79.10;;;;;;5049256;28;20219;-80
2022/03/01 10:25:27;;;;;;;11.10;7.00;;;8.10;79.10;;;;;;5049939;28;20190;-77
2022/03/01 10:27:57;;;;;;;9.13;6.37;;;8.10;79.00;;;;;;5045053;28;20205;-82
2022/03/01 10:30:29;;;;;;;9.87;6.70;;;8.10;79.00;;;;;;5049796;28;20871;-78
2022/03/01 10:33:08;;;;;;;10.33;6.60;;;8.10;79.70;;;;;;5049533;28;20195;-79
2022/03/01 10:35:37;;;;;;;10.43;7.13;;;8.10;78.90;;;;;;5047532;28;20202;-79
2022/03/01 10:38:07;;;;;;;10.37;6.93;;;8.10;78.90;;;;;;5044694;28;20247;-79
2022/03/01 10:40:38;;;;;;;10.60;6.00;;;8.20;79.10;;;;;;5048109;28;20201;-79
2022/03/01 10:43:10;;;;;;;11.83;6.03;;;8.20;79.00;;;;;;5047253;28;20290;-76
2022/03/01 10:45:42;;;;;;;12.90;7.53;;;8.30;78.90;;;;;;5048293;28;20194;-75
2022/03/01 10:48:15;;;;;;;13.33;7.50;;;8.30;78.80;;;;;;5048396;28;20540;-75
2022/03/01 10:50:46;;;;;;;9.00;6.30;;;8.40;79.00;;;;;;5046387;28;20278;-75
2022/03/01 10:53:14;;;;;;;11.57;6.53;;;8.40;78.90;;;;;;5047739;28;20292;-74
2022/03/01 10:55:43;;;;;;;14.07;8.40;;;8.40;78.70;;;;;;5049310;28;20212;-76
2022/03/01 10:58:14;;;;;;;12.17;8.00;;;8.40;78.70;;;;;;5049010;28;20619;-74
2022/03/01 11:00:43;;;;;;;10.37;7.20;;;8.40;78.60;;;;;;5049549;28;21592;-75
2022/03/01 11:03:13;;;;;;;11.37;6.93;;;8.40;78.60;;;;;;5049473;28;20203;-74
2022/03/01 11:05:42;;;;;;;11.37;6.47;;;8.40;78.80;;;;;;5050368;28;20206;-76
2022/03/01 11:08:33;;;;;;;10.47;6.50;;;8.40;78.80;;;;;;5049640;28;20207;-76
2022/03/01 11:11:03;;;;;;;12.03;6.87;;;8.40;78.90;;;;;;5047959;28;20295;-76
2022/03/01 11:13:41;;;;;;;21.13;10.07;;;8.40;79.00;;;;;;5049584;28;20193;-76
2022/03/01 11:16:25;;;;;;;21.87;14.07;;;8.40;79.10;;;;;;5048179;28;20255;-77
2022/03/01 11:19:06;;;;;;;11.37;7.77;;;8.40;79.10;;;;;;5050903;28;20194;-76
2022/03/01 11:21:35;;;;;;;15.50;7.27;;;8.40;79.10;;;;;;5048528;28;20188;-76
2022/03/01 11:24:04;;;;;;;13.63;7.90;;;8.40;79.10;;;;;;5047365;28;20232;-76
2022/03/01 11:26:37;;;;;;;16.33;7.13;;;8.30;79.20;;;;;;5051063;28;20279;-76
2022/03/01 11:29:10;;;;;;;11.85;7.65;;;8.30;79.10;;;;;;5048802;28;20441;-76
2022/03/01 11:31:40;;;;;;;11.30;6.67;;;8.30;79.40;;;;;;5048469;28;20192;-76
2022/03/01 11:34:14;;;;;;;14.37;7.40;;;8.30;79.30;;;;;;5047292;28;20225;-76
2022/03/01 11:36:50;;;;;;;11.90;7.27;;;8.30;79.30;;;;;;5045202;28;20196;-77
2022/03/01 11:39:25;;;;;;;12.37;8.17;;;8.30;79.30;;;;;;5047900;28;20206;-76
2022/03/01 11:42:02;;;;;;;14.23;8.00;;;8.30;79.30;;;;;;5047128;28;20281;-77
2022/03/01 11:44:34;;;;;;;9.47;6.33;;;8.30;79.40;;;;;;5046014;28;20193;-76
2022/03/01 11:47:06;;;;;;;11.03;6.83;;;8.30;79.40;;;;;;5048299;28;20224;-76
2022/03/01 11:52:17;;;;;;;11.17;7.33;;;8.30;79.70;;;;;;5030362;28;20232;-77
2022/03/01 11:54:47;;;;;;;10.40;6.50;;;8.20;79.60;;;;;;5032501;28;20212;-77
2022/03/01 11:57:17;;;;;;;13.13;6.67;;;8.20;79.70;;;;;;5032593;28;20192;-76
2022/03/01 11:59:47;;;;;;;9.63;6.70;;;8.20;79.50;;;;;;5031629;28;20951;-76
2022/03/01 12:02:19;;;;;;;10.57;6.63;;;8.30;79.50;;;;;;5031608;28;20206;-77
2022/03/01 12:04:51;;;;;;;11.70;6.93;;;8.30;79.60;;;;;;5032661;28;20191;-76
2022/03/01 12:07:22;;;;;;;10.50;6.60;;;8.30;79.60;;;;;;5030177;28;20298;-76
2022/03/01 12:09:58;;;;;;;12.13;7.33;;;8.30;79.70;;;;;;5034527;28;20200;-75
2022/03/01 12:12:37;;;;;;;10.90;7.43;;;8.30;79.70;;;;;;5032299;28;20198;-76
2022/03/01 12:15:08;;;;;;;11.53;7.10;;;8.40;79.80;;;;;;5033724;28;20255;-75
2022/03/01 12:17:43;;;;;;;11.43;7.83;;;8.40;79.80;;;;;;5033041;28;20194;-75
2022/03/01 12:20:15;;;;;;;10.63;7.60;;;8.40;79.90;;;;;;5032205;28;20846;-76
2022/03/01 12:22:58;;;;;;;12.83;8.00;;;8.40;80.00;;;;;;5032470;28;20197;-76
2022/03/01 12:25:28;;;;;;;13.20;7.63;;;8.40;80.30;;;;;;5031978;28;20197;-77
2022/03/01 12:27:56;;;;;;;13.60;7.77;;;8.40;80.00;;;;;;5034228;28;20201;-77
2022/03/01 12:30:26;;;;;;;11.97;8.33;;;8.40;80.00;;;;;;5030870;28;20206;-76
2022/03/01 12:32:58;;;;;;;14.97;9.63;;;8.40;80.00;;;;;;5032049;28;20480;-76
2022/03/01 12:35:29;;;;;;;13.17;8.23;;;8.40;80.70;;;;;;5033351;28;20215;-75
2022/03/01 12:38:08;;;;;;;12.37;7.93;;;8.40;80.70;;;;;;5031398;28;20210;-77
2022/03/01 12:40:38;;;;;;;10.83;7.20;;;8.40;80.50;;;;;;5032835;28;20193;-78
2022/03/01 12:43:08;;;;;;;11.00;7.77;;;8.30;80.20;;;;;;5033635;28;20216;-78
2022/03/01 12:45:39;;;;;;;10.47;7.07;;;8.30;79.80;;;;;;5031546;28;20201;-77
2022/03/01 12:48:16;;;;;;;10.77;7.20;;;8.30;79.80;;;;;;5030583;28;20203;-76
2022/03/01 12:50:54;;;;;;;10.20;6.83;;;8.20;79.70;;;;;;5029914;28;20614;-77
2022/03/01 12:53:29;;;;;;;13.87;7.87;;;8.20;79.70;;;;;;5032767;28;20201;-77
2022/03/01 12:55:58;;;;;;;12.67;7.63;;;8.20;79.80;;;;;;5033203;28;20293;-77
2022/03/01 12:58:28;;;;;;;10.97;6.40;;;8.20;79.90;;;;;;5033573;28;20213;-77